San Francisco, CA

10:45 PM PDT on August 30, 2014 (GMT -0700)
San Francisco International | Change Station
CLOSE
Current Station
Airport
Location: San Francisco,
Elevation: 16 ft
Nearby Weather Stations

Elev 16 ft 37.62 °N, 122.37 °W | Updated 49 minutes ago

Scattered Clouds
Scattered Clouds
65 °F
Feels Like 65 °F
N
24
Wind Variable Wind from West

Today
High -- | Low -- °F
--% Chance of Precip.
Yesterday
High -- | Low -- °F
Precip. -- in
6:38 AM 7:41 PM
Waxing Crescent, 28% visible
Pressure 29.89 in
Visibility 10.0 miles
Clouds Few 1100 ft
Scattered Clouds 20000 ft
Dew Point 60 °F
Humidity 84%
Rainfall 0.00 in
Snow Depth Not available.
UV 0 out of 12
Pollen 7.70 out of 12
PM2.5 Good
Flu Activity Not available.
METAR KSFO 310456Z 27021KT 10SM FEW011 SCT200 18/16 A2989 RMK AO2 PK WND 26028/0437 SLP120 T01830156 $

More Conditions Fewer Conditions

Pressure 29.89 in
Visibility 10.0 miles
Clouds Few 1100 ft
Scattered Clouds 20000 ft
Dew Point 60 °F
Humidity 84%
Rainfall 0.00 in
Snow Depth Not available.
UV 0 out of 12
Pollen 7.70 out of 12
PM2.5 Good
Flu Activity Not available.
METAR KSFO 310456Z 27021KT 10SM FEW011 SCT200 18/16 A2989 RMK AO2 PK WND 26028/0437 SLP120 T01830156 $

More Conditions Fewer Conditions

10-Day Weather Forecast

Almanac

Astronomy

Aug. 30, 2014 Rise Set
Actual Time 6:38 AM PDT 7:41 PM PDT
Civil Twilight 6:11 AM PDT 8:08 PM PDT
Nautical Twilight 5:39 AM PDT 8:40 PM PDT
Astronomical Twilight 5:05 AM PDT 9:13 PM PDT
Moon 11:24 AM PDT (8/30) 10:25 PM PDT (8/30)
Length of Visible Light 13h 56m
Length of Day
13h 03m
Tomorrow will be 2m 18s shorter.
Waxing Crescent, 28% of the Moon is Illuminated
Aug 31
Waxing Crescent
Sep 2
First Quarter
Sep 8
Full
Sep 15
Last Quarter
Sep 24
New

Yesterday's Extremes

State Highs State Lows

Community

WunderPhotos

Upload Photos

1,748,790 photos uploaded!

Nearby

Air Quality

  Air Quality AQ Index Pollutant
Yesterday Good
PM2.5
Yesterday Good
OZONE
Current Good
PM2.5
Saturday Good
PM2.5
Sunday Good
OZONE
Monday Good
OZONE
Tuesday Good
PM2.5
Wednesday Good
OZONE

Snow Depth

Station Depth Elevation
Blue Lakes 0 in 8000 ft
Forestdale Creek 0 in 8029 ft
Echo Peak 1 in 7800 ft
Rubicon #2 0 in 7500 ft
Leavitt Lake 0 in 9400 ft

Earthquake Activity

City Distance Mag. Time & Date
Gonzales, California 92 miles 2.7 9:48 PM PDT
2014-08-30
Ridgemark, California 86 miles 3.4 4:32 PM PDT
2014-08-29
The Geysers, California 86 miles 2.7 2:53 PM PDT
2014-08-29
Ridgemark, California 86 miles 3.0 2:44 PM PDT
2014-08-29
Minimum magnitude displayed is 2.5.

Coastal Water Temperatures

Place Temperature
No Stations Reporting

Nearby Weather Stations